sensor_id;sensor_type;location;lat;lon;timestamp;P1;durP1;ratioP1;P2;durP2;ratioP2
53646;SDS011;39550;52.230;5.194;2022-12-20T00:02:14;11.27;;;6.40;;
53646;SDS011;39550;52.230;5.194;2022-12-20T00:04:40;8.68;;;6.05;;
53646;SDS011;39550;52.230;5.194;2022-12-20T00:07:05;10.00;;;6.55;;
53646;SDS011;39550;52.230;5.194;2022-12-20T00:09:31;11.27;;;6.20;;
53646;SDS011;39550;52.230;5.194;2022-12-20T00:11:57;8.02;;;5.93;;
53646;SDS011;39550;52.230;5.194;2022-12-20T00:14:22;7.78;;;5.72;;
53646;SDS011;39550;52.230;5.194;2022-12-20T00:16:47;8.77;;;5.53;;
53646;SDS011;39550;52.230;5.194;2022-12-20T00:19:13;8.00;;;6.13;;
53646;SDS011;39550;52.230;5.194;2022-12-20T00:21:38;9.73;;;5.88;;
53646;SDS011;39550;52.230;5.194;2022-12-20T00:24:04;10.10;;;6.25;;
53646;SDS011;39550;52.230;5.194;2022-12-20T00:26:31;8.63;;;6.28;;
53646;SDS011;39550;52.230;5.194;2022-12-20T00:28:58;9.00;;;6.18;;
53646;SDS011;39550;52.230;5.194;2022-12-20T00:31:24;9.18;;;5.90;;
53646;SDS011;39550;52.230;5.194;2022-12-20T00:33:52;9.60;;;5.95;;
53646;SDS011;39550;52.230;5.194;2022-12-20T00:36:19;9.55;;;6.13;;
53646;SDS011;39550;52.230;5.194;2022-12-20T00:38:46;9.50;;;6.28;;
53646;SDS011;39550;52.230;5.194;2022-12-20T00:41:13;7.90;;;5.68;;
53646;SDS011;39550;52.230;5.194;2022-12-20T00:43:41;9.25;;;5.90;;
53646;SDS011;39550;52.230;5.194;2022-12-20T00:46:07;7.82;;;5.95;;
53646;SDS011;39550;52.230;5.194;2022-12-20T00:48:33;9.40;;;5.88;;
53646;SDS011;39550;52.230;5.194;2022-12-20T00:51:01;9.00;;;5.78;;
53646;SDS011;39550;52.230;5.194;2022-12-20T00:53:29;8.95;;;5.82;;
53646;SDS011;39550;52.230;5.194;2022-12-20T00:55:55;7.45;;;5.78;;
53646;SDS011;39550;52.230;5.194;2022-12-20T00:58:21;8.65;;;5.95;;
53646;SDS011;39550;52.230;5.194;2022-12-20T01:00:46;9.13;;;5.78;;
53646;SDS011;39550;52.230;5.194;2022-12-20T01:03:12;10.57;;;6.07;;
53646;SDS011;39550;52.230;5.194;2022-12-20T01:05:37;7.82;;;5.60;;
53646;SDS011;39550;52.230;5.194;2022-12-20T01:08:03;11.02;;;5.90;;
53646;SDS011;39550;52.230;5.194;2022-12-20T01:10:29;9.82;;;5.88;;
53646;SDS011;39550;52.230;5.194;2022-12-20T01:12:55;8.32;;;5.82;;
53646;SDS011;39550;52.230;5.194;2022-12-20T01:15:20;7.82;;;5.50;;
53646;SDS011;39550;52.230;5.194;2022-12-20T01:17:46;8.18;;;5.78;;
53646;SDS011;39550;52.230;5.194;2022-12-20T01:20:11;10.80;;;5.70;;
53646;SDS011;39550;52.230;5.194;2022-12-20T01:22:37;10.20;;;5.78;;
53646;SDS011;39550;52.230;5.194;2022-12-20T01:25:02;8.77;;;5.88;;
53646;SDS011;39550;52.230;5.194;2022-12-20T01:27:28;9.13;;;5.65;;
53646;SDS011;39550;52.230;5.194;2022-12-20T01:29:54;8.80;;;5.63;;
53646;SDS011;39550;52.230;5.194;2022-12-20T01:32:19;8.52;;;6.13;;
53646;SDS011;39550;52.230;5.194;2022-12-20T01:34:44;8.07;;;5.07;;
53646;SDS011;39550;52.230;5.194;2022-12-20T01:37:10;10.52;;;5.80;;
53646;SDS011;39550;52.230;5.194;2022-12-20T01:39:35;8.40;;;5.38;;
53646;SDS011;39550;52.230;5.194;2022-12-20T01:42:01;8.18;;;5.50;;
53646;SDS011;39550;52.230;5.194;2022-12-20T01:46:52;9.52;;;5.57;;
53646;SDS011;39550;52.230;5.194;2022-12-20T01:51:47;8.52;;;5.32;;
53646;SDS011;39550;52.230;5.194;2022-12-20T01:54:17;8.10;;;5.97;;
53646;SDS011;39550;52.230;5.194;2022-12-20T01:56:49;8.23;;;5.22;;
53646;SDS011;39550;52.230;5.194;2022-12-20T01:59:17;10.23;;;5.47;;
53646;SDS011;39550;52.230;5.194;2022-12-20T02:01:43;7.97;;;5.40;;
53646;SDS011;39550;52.230;5.194;2022-12-20T02:04:10;8.88;;;5.65;;
53646;SDS011;39550;52.230;5.194;2022-12-20T02:06:35;7.18;;;5.40;;
53646;SDS011;39550;52.230;5.194;2022-12-20T02:09:01;6.93;;;5.50;;
53646;SDS011;39550;52.230;5.194;2022-12-20T02:11:40;8.07;;;5.03;;
53646;SDS011;39550;52.230;5.194;2022-12-20T02:14:35;9.57;;;5.20;;
53646;SDS011;39550;52.230;5.194;2022-12-20T02:31:29;9.80;;;5.10;;
53646;SDS011;39550;52.230;5.194;2022-12-20T02:33:58;9.45;;;5.70;;
53646;SDS011;39550;52.230;5.194;2022-12-20T02:36:24;8.63;;;5.40;;
53646;SDS011;39550;52.230;5.194;2022-12-20T02:38:50;8.05;;;5.05;;
53646;SDS011;39550;52.230;5.194;2022-12-20T02:41:20;7.97;;;5.47;;
53646;SDS011;39550;52.230;5.194;2022-12-20T02:43:52;8.25;;;5.53;;
53646;SDS011;39550;52.230;5.194;2022-12-20T02:46:40;8.57;;;6.03;;
53646;SDS011;39550;52.230;5.194;2022-12-20T02:49:08;8.43;;;5.38;;
53646;SDS011;39550;52.230;5.194;2022-12-20T02:51:36;7.88;;;5.10;;
53646;SDS011;39550;52.230;5.194;2022-12-20T02:54:03;8.82;;;5.60;;
53646;SDS011;39550;52.230;5.194;2022-12-20T02:56:32;8.20;;;5.65;;
53646;SDS011;39550;52.230;5.194;2022-12-20T02:59:10;7.68;;;5.35;;
53646;SDS011;39550;52.230;5.194;2022-12-20T03:01:43;7.30;;;5.35;;
53646;SDS011;39550;52.230;5.194;2022-12-20T03:04:11;9.23;;;6.07;;
53646;SDS011;39550;52.230;5.194;2022-12-20T03:06:38;7.60;;;5.32;;
53646;SDS011;39550;52.230;5.194;2022-12-20T03:09:04;7.78;;;5.15;;
53646;SDS011;39550;52.230;5.194;2022-12-20T03:11:29;9.90;;;5.43;;
53646;SDS011;39550;52.230;5.194;2022-12-20T03:13:54;7.22;;;5.10;;
53646;SDS011;39550;52.230;5.194;2022-12-20T03:16:20;8.80;;;5.43;;
53646;SDS011;39550;52.230;5.194;2022-12-20T03:18:45;7.50;;;5.57;;
53646;SDS011;39550;52.230;5.194;2022-12-20T03:21:12;7.93;;;5.32;;
53646;SDS011;39550;52.230;5.194;2022-12-20T03:23:37;7.57;;;5.57;;
53646;SDS011;39550;52.230;5.194;2022-12-20T03:26:03;7.00;;;5.03;;
53646;SDS011;39550;52.230;5.194;2022-12-20T03:28:28;8.23;;;5.20;;
53646;SDS011;39550;52.230;5.194;2022-12-20T03:30:53;6.63;;;5.13;;
53646;SDS011;39550;52.230;5.194;2022-12-20T03:33:19;7.70;;;5.10;;
53646;SDS011;39550;52.230;5.194;2022-12-20T03:35:45;8.15;;;5.05;;
53646;SDS011;39550;52.230;5.194;2022-12-20T03:38:11;7.32;;;4.90;;
53646;SDS011;39550;52.230;5.194;2022-12-20T03:40:36;7.40;;;5.30;;
53646;SDS011;39550;52.230;5.194;2022-12-20T03:43:02;8.68;;;5.45;;
53646;SDS011;39550;52.230;5.194;2022-12-20T03:45:27;7.90;;;5.80;;
53646;SDS011;39550;52.230;5.194;2022-12-20T03:47:52;8.35;;;5.30;;
53646;SDS011;39550;52.230;5.194;2022-12-20T03:50:18;8.43;;;5.40;;
53646;SDS011;39550;52.230;5.194;2022-12-20T03:52:43;8.32;;;5.30;;
53646;SDS011;39550;52.230;5.194;2022-12-20T03:55:08;10.07;;;5.72;;
53646;SDS011;39550;52.230;5.194;2022-12-20T03:57:34;9.40;;;5.55;;
53646;SDS011;39550;52.230;5.194;2022-12-20T04:00:00;10.63;;;6.15;;
53646;SDS011;39550;52.230;5.194;2022-12-20T04:02:25;7.80;;;5.68;;
53646;SDS011;39550;52.230;5.194;2022-12-20T04:04:51;7.88;;;5.05;;
53646;SDS011;39550;52.230;5.194;2022-12-20T04:07:16;8.05;;;5.07;;
53646;SDS011;39550;52.230;5.194;2022-12-20T04:09:42;8.68;;;5.50;;
53646;SDS011;39550;52.230;5.194;2022-12-20T04:12:07;7.22;;;5.38;;
53646;SDS011;39550;52.230;5.194;2022-12-20T04:14:32;9.05;;;5.35;;
53646;SDS011;39550;52.230;5.194;2022-12-20T04:16:58;8.00;;;5.13;;
53646;SDS011;39550;52.230;5.194;2022-12-20T04:19:23;8.02;;;5.20;;
53646;SDS011;39550;52.230;5.194;2022-12-20T04:21:49;7.47;;;4.97;;
53646;SDS011;39550;52.230;5.194;2022-12-20T04:24:14;9.82;;;5.43;;
53646;SDS011;39550;52.230;5.194;2022-12-20T04:26:39;10.27;;;5.13;;
53646;SDS011;39550;52.230;5.194;2022-12-20T04:29:05;8.27;;;5.18;;
53646;SDS011;39550;52.230;5.194;2022-12-20T04:31:30;7.60;;;5.05;;
53646;SDS011;39550;52.230;5.194;2022-12-20T04:33:56;10.88;;;5.13;;
53646;SDS011;39550;52.230;5.194;2022-12-20T04:36:21;7.57;;;4.70;;
53646;SDS011;39550;52.230;5.194;2022-12-20T04:38:47;7.63;;;5.07;;
53646;SDS011;39550;52.230;5.194;2022-12-20T04:41:12;8.35;;;5.35;;
53646;SDS011;39550;52.230;5.194;2022-12-20T04:43:56;7.20;;;5.15;;
53646;SDS011;39550;52.230;5.194;2022-12-20T04:46:23;7.28;;;4.75;;
53646;SDS011;39550;52.230;5.194;2022-12-20T04:48:49;7.75;;;5.32;;
53646;SDS011;39550;52.230;5.194;2022-12-20T04:51:15;7.55;;;4.82;;
53646;SDS011;39550;52.230;5.194;2022-12-20T04:53:40;7.57;;;4.95;;
53646;SDS011;39550;52.230;5.194;2022-12-20T04:56:13;7.93;;;5.32;;
53646;SDS011;39550;52.230;5.194;2022-12-20T04:58:39;6.78;;;4.78;;
53646;SDS011;39550;52.230;5.194;2022-12-20T05:01:05;6.65;;;4.78;;
53646;SDS011;39550;52.230;5.194;2022-12-20T05:03:30;6.97;;;4.97;;
53646;SDS011;39550;52.230;5.194;2022-12-20T05:05:55;9.13;;;5.38;;
53646;SDS011;39550;52.230;5.194;2022-12-20T05:08:21;10.82;;;5.32;;
53646;SDS011;39550;52.230;5.194;2022-12-20T05:10:47;8.90;;;5.13;;
53646;SDS011;39550;52.230;5.194;2022-12-20T05:13:12;8.05;;;4.95;;
53646;SDS011;39550;52.230;5.194;2022-12-20T05:15:38;7.80;;;5.05;;
53646;SDS011;39550;52.230;5.194;2022-12-20T05:18:03;7.55;;;5.00;;
53646;SDS011;39550;52.230;5.194;2022-12-20T05:20:29;8.43;;;5.07;;
53646;SDS011;39550;52.230;5.194;2022-12-20T05:22:56;7.70;;;5.13;;
53646;SDS011;39550;52.230;5.194;2022-12-20T05:25:45;7.85;;;5.22;;
53646;SDS011;39550;52.230;5.194;2022-12-20T05:28:31;8.13;;;5.18;;
53646;SDS011;39550;52.230;5.194;2022-12-20T05:30:57;9.50;;;5.30;;
53646;SDS011;39550;52.230;5.194;2022-12-20T05:33:23;7.20;;;5.00;;
53646;SDS011;39550;52.230;5.194;2022-12-20T05:35:48;7.80;;;5.75;;
53646;SDS011;39550;52.230;5.194;2022-12-20T05:38:14;6.72;;;5.07;;
53646;SDS011;39550;52.230;5.194;2022-12-20T05:40:39;6.57;;;4.78;;
53646;SDS011;39550;52.230;5.194;2022-12-20T05:43:05;7.85;;;5.28;;
53646;SDS011;39550;52.230;5.194;2022-12-20T05:45:30;8.50;;;5.35;;
53646;SDS011;39550;52.230;5.194;2022-12-20T05:47:56;8.68;;;5.22;;
53646;SDS011;39550;52.230;5.194;2022-12-20T05:50:22;8.23;;;5.35;;
53646;SDS011;39550;52.230;5.194;2022-12-20T05:52:51;7.60;;;5.68;;
53646;SDS011;39550;52.230;5.194;2022-12-20T05:55:16;8.25;;;5.25;;
53646;SDS011;39550;52.230;5.194;2022-12-20T05:57:41;7.20;;;4.85;;
53646;SDS011;39550;52.230;5.194;2022-12-20T06:00:07;6.82;;;5.10;;
53646;SDS011;39550;52.230;5.194;2022-12-20T06:02:33;8.45;;;5.30;;
53646;SDS011;39550;52.230;5.194;2022-12-20T06:04:58;9.43;;;5.00;;
53646;SDS011;39550;52.230;5.194;2022-12-20T06:07:27;7.30;;;5.40;;
53646;SDS011;39550;52.230;5.194;2022-12-20T06:09:53;9.25;;;5.22;;
53646;SDS011;39550;52.230;5.194;2022-12-20T06:12:19;9.45;;;5.10;;
53646;SDS011;39550;52.230;5.194;2022-12-20T06:14:44;8.10;;;5.20;;
53646;SDS011;39550;52.230;5.194;2022-12-20T06:17:10;10.23;;;5.18;;
53646;SDS011;39550;52.230;5.194;2022-12-20T06:19:36;7.78;;;5.20;;
53646;SDS011;39550;52.230;5.194;2022-12-20T06:22:01;7.78;;;5.40;;
53646;SDS011;39550;52.230;5.194;2022-12-20T06:24:27;10.57;;;5.22;;
53646;SDS011;39550;52.230;5.194;2022-12-20T06:26:53;8.68;;;5.70;;
53646;SDS011;39550;52.230;5.194;2022-12-20T06:29:18;9.13;;;5.72;;
53646;SDS011;39550;52.230;5.194;2022-12-20T06:34:13;9.20;;;5.35;;
53646;SDS011;39550;52.230;5.194;2022-12-20T06:36:40;7.45;;;5.07;;
53646;SDS011;39550;52.230;5.194;2022-12-20T06:39:12;8.50;;;5.18;;
53646;SDS011;39550;52.230;5.194;2022-12-20T06:41:38;9.45;;;5.95;;
53646;SDS011;39550;52.230;5.194;2022-12-20T06:44:04;9.10;;;5.38;;
53646;SDS011;39550;52.230;5.194;2022-12-20T06:46:30;7.82;;;5.35;;
53646;SDS011;39550;52.230;5.194;2022-12-20T06:48:55;6.93;;;5.10;;
53646;SDS011;39550;52.230;5.194;2022-12-20T06:51:21;7.40;;;5.25;;
53646;SDS011;39550;52.230;5.194;2022-12-20T06:53:46;7.63;;;4.80;;
53646;SDS011;39550;52.230;5.194;2022-12-20T06:56:12;7.65;;;5.18;;
53646;SDS011;39550;52.230;5.194;2022-12-20T06:58:37;6.45;;;4.55;;
53646;SDS011;39550;52.230;5.194;2022-12-20T07:01:03;7.78;;;5.25;;
53646;SDS011;39550;52.230;5.194;2022-12-20T07:03:28;11.52;;;5.38;;
53646;SDS011;39550;52.230;5.194;2022-12-20T07:05:53;8.10;;;4.90;;
53646;SDS011;39550;52.230;5.194;2022-12-20T07:08:20;8.55;;;4.82;;
53646;SDS011;39550;52.230;5.194;2022-12-20T07:10:47;8.55;;;5.40;;
53646;SDS011;39550;52.230;5.194;2022-12-20T07:13:12;6.53;;;5.10;;
53646;SDS011;39550;52.230;5.194;2022-12-20T07:15:38;7.22;;;4.55;;
53646;SDS011;39550;52.230;5.194;2022-12-20T07:18:03;8.00;;;5.03;;
53646;SDS011;39550;52.230;5.194;2022-12-20T07:20:29;9.30;;;5.28;;
53646;SDS011;39550;52.230;5.194;2022-12-20T07:22:55;9.30;;;4.95;;
53646;SDS011;39550;52.230;5.194;2022-12-20T07:25:20;10.63;;;5.03;;
53646;SDS011;39550;52.230;5.194;2022-12-20T07:27:49;7.18;;;4.78;;
53646;SDS011;39550;52.230;5.194;2022-12-20T07:30:15;6.47;;;4.47;;
53646;SDS011;39550;52.230;5.194;2022-12-20T07:32:41;7.60;;;4.72;;
53646;SDS011;39550;52.230;5.194;2022-12-20T07:35:06;6.50;;;4.53;;
53646;SDS011;39550;52.230;5.194;2022-12-20T07:37:32;7.75;;;4.80;;
53646;SDS011;39550;52.230;5.194;2022-12-20T07:39:57;9.32;;;5.40;;
53646;SDS011;39550;52.230;5.194;2022-12-20T07:42:23;6.22;;;4.45;;
53646;SDS011;39550;52.230;5.194;2022-12-20T07:44:48;8.45;;;5.00;;
53646;SDS011;39550;52.230;5.194;2022-12-20T07:47:14;9.35;;;5.05;;
53646;SDS011;39550;52.230;5.194;2022-12-20T07:49:39;6.70;;;4.60;;
53646;SDS011;39550;52.230;5.194;2022-12-20T07:52:04;9.38;;;4.63;;
53646;SDS011;39550;52.230;5.194;2022-12-20T07:54:40;9.02;;;5.53;;
53646;SDS011;39550;52.230;5.194;2022-12-20T07:57:11;8.48;;;4.82;;
53646;SDS011;39550;52.230;5.194;2022-12-20T07:59:41;9.10;;;4.82;;
53646;SDS011;39550;52.230;5.194;2022-12-20T08:02:12;7.78;;;4.50;;
53646;SDS011;39550;52.230;5.194;2022-12-20T08:04:41;6.90;;;4.75;;
53646;SDS011;39550;52.230;5.194;2022-12-20T08:07:07;5.80;;;4.22;;
53646;SDS011;39550;52.230;5.194;2022-12-20T08:09:35;7.07;;;4.65;;
53646;SDS011;39550;52.230;5.194;2022-12-20T08:12:04;8.05;;;4.50;;
53646;SDS011;39550;52.230;5.194;2022-12-20T08:14:31;7.70;;;5.03;;
53646;SDS011;39550;52.230;5.194;2022-12-20T08:16:56;7.30;;;4.35;;
53646;SDS011;39550;52.230;5.194;2022-12-20T08:19:21;8.60;;;5.55;;
53646;SDS011;39550;52.230;5.194;2022-12-20T08:21:47;6.68;;;4.57;;
53646;SDS011;39550;52.230;5.194;2022-12-20T08:24:12;8.40;;;4.57;;
53646;SDS011;39550;52.230;5.194;2022-12-20T08:26:38;6.32;;;4.82;;
53646;SDS011;39550;52.230;5.194;2022-12-20T08:29:05;7.53;;;4.28;;
53646;SDS011;39550;52.230;5.194;2022-12-20T08:31:31;7.57;;;4.53;;
53646;SDS011;39550;52.230;5.194;2022-12-20T08:33:56;7.25;;;4.72;;
53646;SDS011;39550;52.230;5.194;2022-12-20T08:36:22;7.25;;;4.70;;
53646;SDS011;39550;52.230;5.194;2022-12-20T08:38:47;10.70;;;5.40;;
53646;SDS011;39550;52.230;5.194;2022-12-20T08:41:15;7.25;;;4.65;;
53646;SDS011;39550;52.230;5.194;2022-12-20T08:43:41;6.93;;;4.78;;
53646;SDS011;39550;52.230;5.194;2022-12-20T08:46:07;6.57;;;4.55;;
53646;SDS011;39550;52.230;5.194;2022-12-20T08:48:34;6.80;;;4.60;;
53646;SDS011;39550;52.230;5.194;2022-12-20T08:51:01;6.45;;;4.88;;
53646;SDS011;39550;52.230;5.194;2022-12-20T08:53:28;6.05;;;4.22;;
53646;SDS011;39550;52.230;5.194;2022-12-20T08:56:01;6.72;;;4.13;;
53646;SDS011;39550;52.230;5.194;2022-12-20T08:58:45;6.88;;;4.43;;
53646;SDS011;39550;52.230;5.194;2022-12-20T09:01:12;7.80;;;4.35;;
53646;SDS011;39550;52.230;5.194;2022-12-20T09:03:40;7.87;;;4.67;;
53646;SDS011;39550;52.230;5.194;2022-12-20T09:06:07;6.50;;;4.68;;
53646;SDS011;39550;52.230;5.194;2022-12-20T09:08:36;6.95;;;5.13;;
53646;SDS011;39550;52.230;5.194;2022-12-20T09:11:06;7.40;;;4.60;;
53646;SDS011;39550;52.230;5.194;2022-12-20T09:13:33;7.10;;;4.20;;
53646;SDS011;39550;52.230;5.194;2022-12-20T09:16:00;8.30;;;4.68;;
53646;SDS011;39550;52.230;5.194;2022-12-20T09:18:28;7.78;;;4.40;;
53646;SDS011;39550;52.230;5.194;2022-12-20T09:20:55;6.25;;;4.20;;
53646;SDS011;39550;52.230;5.194;2022-12-20T09:23:23;8.10;;;4.65;;
53646;SDS011;39550;52.230;5.194;2022-12-20T09:25:48;7.57;;;4.90;;
53646;SDS011;39550;52.230;5.194;2022-12-20T09:28:14;6.93;;;4.50;;
53646;SDS011;39550;52.230;5.194;2022-12-20T09:30:39;7.38;;;4.88;;
53646;SDS011;39550;52.230;5.194;2022-12-20T09:33:04;7.20;;;4.63;;
53646;SDS011;39550;52.230;5.194;2022-12-20T09:35:30;7.72;;;4.70;;
53646;SDS011;39550;52.230;5.194;2022-12-20T09:37:57;6.38;;;4.38;;
53646;SDS011;39550;52.230;5.194;2022-12-20T09:40:23;6.00;;;4.30;;
53646;SDS011;39550;52.230;5.194;2022-12-20T09:42:52;6.50;;;4.25;;
53646;SDS011;39550;52.230;5.194;2022-12-20T09:45:21;8.52;;;4.35;;
53646;SDS011;39550;52.230;5.194;2022-12-20T09:47:51;8.07;;;4.72;;
53646;SDS011;39550;52.230;5.194;2022-12-20T09:50:17;6.18;;;4.10;;
53646;SDS011;39550;52.230;5.194;2022-12-20T09:55:33;7.80;;;4.57;;
53646;SDS011;39550;52.230;5.194;2022-12-20T09:59:02;7.38;;;4.32;;
53646;SDS011;39550;52.230;5.194;2022-12-20T10:01:14;6.75;;;4.35;;
53646;SDS011;39550;52.230;5.194;2022-12-20T10:03:41;6.80;;;4.57;;
53646;SDS011;39550;52.230;5.194;2022-12-20T10:06:16;12.45;;;5.03;;
53646;SDS011;39550;52.230;5.194;2022-12-20T10:08:57;5.90;;;4.13;;
53646;SDS011;39550;52.230;5.194;2022-12-20T10:25:31;9.00;;;5.13;;
53646;SDS011;39550;52.230;5.194;2022-12-20T10:27:59;7.50;;;4.35;;
53646;SDS011;39550;52.230;5.194;2022-12-20T10:30:28;6.47;;;4.30;;
53646;SDS011;39550;52.230;5.194;2022-12-20T10:32:57;9.52;;;4.25;;
53646;SDS011;39550;52.230;5.194;2022-12-20T10:40:26;7.88;;;4.88;;
53646;SDS011;39550;52.230;5.194;2022-12-20T10:42:57;8.27;;;5.10;;
53646;SDS011;39550;52.230;5.194;2022-12-20T10:45:42;6.32;;;4.10;;
53646;SDS011;39550;52.230;5.194;2022-12-20T10:51:01;7.72;;;4.72;;
53646;SDS011;39550;52.230;5.194;2022-12-20T10:53:50;6.40;;;4.47;;
53646;SDS011;39550;52.230;5.194;2022-12-20T10:58:53;7.75;;;4.95;;
53646;SDS011;39550;52.230;5.194;2022-12-20T11:01:19;7.13;;;4.38;;
53646;SDS011;39550;52.230;5.194;2022-12-20T11:03:50;7.50;;;4.78;;
53646;SDS011;39550;52.230;5.194;2022-12-20T11:06:23;7.32;;;4.82;;
53646;SDS011;39550;52.230;5.194;2022-12-20T11:08:53;7.50;;;5.35;;
53646;SDS011;39550;52.230;5.194;2022-12-20T11:14:39;6.88;;;4.63;;
53646;SDS011;39550;52.230;5.194;2022-12-20T11:29:03;7.70;;;5.00;;
53646;SDS011;39550;52.230;5.194;2022-12-20T11:31:07;9.60;;;5.00;;
53646;SDS011;39550;52.230;5.194;2022-12-20T11:53:29;6.05;;;5.00;;
53646;SDS011;39550;52.230;5.194;2022-12-20T11:56:14;9.13;;;5.55;;
53646;SDS011;39550;52.230;5.194;2022-12-20T11:59:30;8.65;;;5.90;;
53646;SDS011;39550;52.230;5.194;2022-12-20T12:01:31;7.88;;;5.75;;
53646;SDS011;39550;52.230;5.194;2022-12-20T12:04:13;7.65;;;5.60;;
53646;SDS011;39550;52.230;5.194;2022-12-20T12:06:40;6.70;;;5.32;;
53646;SDS011;39550;52.230;5.194;2022-12-20T12:09:25;6.53;;;5.28;;
53646;SDS011;39550;52.230;5.194;2022-12-20T12:11:59;8.20;;;5.80;;
53646;SDS011;39550;52.230;5.194;2022-12-20T12:14:29;7.20;;;5.57;;
53646;SDS011;39550;52.230;5.194;2022-12-20T12:17:07;7.22;;;6.10;;
53646;SDS011;39550;52.230;5.194;2022-12-20T12:19:42;8.52;;;5.97;;
53646;SDS011;39550;52.230;5.194;2022-12-20T12:22:19;8.02;;;6.57;;
53646;SDS011;39550;52.230;5.194;2022-12-20T12:24:51;8.45;;;6.10;;
53646;SDS011;39550;52.230;5.194;2022-12-20T12:27:23;9.25;;;6.68;;
53646;SDS011;39550;52.230;5.194;2022-12-20T12:29:52;7.88;;;6.10;;
53646;SDS011;39550;52.230;5.194;2022-12-20T12:38:03;10.40;;;7.20;;
53646;SDS011;39550;52.230;5.194;2022-12-20T12:41:26;10.40;;;6.80;;
53646;SDS011;39550;52.230;5.194;2022-12-20T12:43:50;8.55;;;6.57;;
53646;SDS011;39550;52.230;5.194;2022-12-20T12:46:25;7.90;;;6.78;;
53646;SDS011;39550;52.230;5.194;2022-12-20T12:51:36;9.10;;;6.70;;
53646;SDS011;39550;52.230;5.194;2022-12-20T12:56:36;10.48;;;6.90;;
53646;SDS011;39550;52.230;5.194;2022-12-20T13:01:49;11.38;;;7.72;;
53646;SDS011;39550;52.230;5.194;2022-12-20T13:09:20;10.27;;;7.07;;
53646;SDS011;39550;52.230;5.194;2022-12-20T13:11:47;9.07;;;6.70;;
53646;SDS011;39550;52.230;5.194;2022-12-20T13:19:40;8.68;;;7.32;;
53646;SDS011;39550;52.230;5.194;2022-12-20T13:29:59;9.23;;;6.80;;
53646;SDS011;39550;52.230;5.194;2022-12-20T13:43:22;7.90;;;6.70;;
53646;SDS011;39550;52.230;5.194;2022-12-20T13:48:21;9.77;;;7.65;;
53646;SDS011;39550;52.230;5.194;2022-12-20T13:50:53;8.15;;;7.32;;
53646;SDS011;39550;52.230;5.194;2022-12-20T13:53:23;8.75;;;6.70;;
53646;SDS011;39550;52.230;5.194;2022-12-20T13:55:53;8.45;;;7.10;;
53646;SDS011;39550;52.230;5.194;2022-12-20T14:01:02;10.40;;;7.47;;
53646;SDS011;39550;52.230;5.194;2022-12-20T14:03:29;7.75;;;6.45;;
53646;SDS011;39550;52.230;5.194;2022-12-20T14:05:57;9.93;;;7.38;;
53646;SDS011;39550;52.230;5.194;2022-12-20T14:08:24;10.27;;;7.30;;
53646;SDS011;39550;52.230;5.194;2022-12-20T14:10:54;9.55;;;7.70;;
53646;SDS011;39550;52.230;5.194;2022-12-20T14:13:23;10.13;;;7.32;;
53646;SDS011;39550;52.230;5.194;2022-12-20T14:15:51;8.20;;;7.35;;
53646;SDS011;39550;52.230;5.194;2022-12-20T14:20:56;9.00;;;8.07;;
53646;SDS011;39550;52.230;5.194;2022-12-20T14:23:26;9.20;;;7.47;;
53646;SDS011;39550;52.230;5.194;2022-12-20T14:26:15;8.40;;;7.20;;
53646;SDS011;39550;52.230;5.194;2022-12-20T14:28:45;10.90;;;8.05;;
53646;SDS011;39550;52.230;5.194;2022-12-20T14:34:04;9.85;;;8.00;;
53646;SDS011;39550;52.230;5.194;2022-12-20T14:36:37;9.00;;;7.88;;
53646;SDS011;39550;52.230;5.194;2022-12-20T14:41:55;9.20;;;7.93;;
53646;SDS011;39550;52.230;5.194;2022-12-20T14:44:36;8.25;;;7.20;;
53646;SDS011;39550;52.230;5.194;2022-12-20T14:47:24;10.13;;;8.02;;
53646;SDS011;39550;52.230;5.194;2022-12-20T14:49:53;9.60;;;7.80;;
53646;SDS011;39550;52.230;5.194;2022-12-20T14:52:32;9.90;;;8.13;;
53646;SDS011;39550;52.230;5.194;2022-12-20T14:55:00;9.57;;;8.55;;
53646;SDS011;39550;52.230;5.194;2022-12-20T15:02:34;10.70;;;8.48;;
53646;SDS011;39550;52.230;5.194;2022-12-20T15:10:39;9.85;;;8.25;;
53646;SDS011;39550;52.230;5.194;2022-12-20T15:13:10;10.35;;;8.88;;
53646;SDS011;39550;52.230;5.194;2022-12-20T15:15:37;10.48;;;8.70;;
53646;SDS011;39550;52.230;5.194;2022-12-20T15:18:16;9.55;;;8.55;;
53646;SDS011;39550;52.230;5.194;2022-12-20T15:20:43;13.15;;;11.27;;
53646;SDS011;39550;52.230;5.194;2022-12-20T15:23:15;18.70;;;14.07;;
53646;SDS011;39550;52.230;5.194;2022-12-20T15:25:42;17.42;;;14.35;;
53646;SDS011;39550;52.230;5.194;2022-12-20T15:28:12;20.13;;;15.68;;
53646;SDS011;39550;52.230;5.194;2022-12-20T15:30:40;17.25;;;14.20;;
53646;SDS011;39550;52.230;5.194;2022-12-20T15:33:05;18.65;;;14.65;;
53646;SDS011;39550;52.230;5.194;2022-12-20T15:35:32;18.20;;;13.88;;
53646;SDS011;39550;52.230;5.194;2022-12-20T15:37:58;15.57;;;13.50;;
53646;SDS011;39550;52.230;5.194;2022-12-20T15:40:23;15.25;;;13.10;;
53646;SDS011;39550;52.230;5.194;2022-12-20T15:42:48;18.27;;;13.32;;
53646;SDS011;39550;52.230;5.194;2022-12-20T15:45:15;15.50;;;13.43;;
53646;SDS011;39550;52.230;5.194;2022-12-20T15:47:41;17.05;;;13.05;;
53646;SDS011;39550;52.230;5.194;2022-12-20T15:50:06;16.30;;;12.55;;
53646;SDS011;39550;52.230;5.194;2022-12-20T15:52:34;13.77;;;12.25;;
53646;SDS011;39550;52.230;5.194;2022-12-20T15:54:59;15.90;;;13.13;;
53646;SDS011;39550;52.230;5.194;2022-12-20T15:57:24;14.80;;;12.93;;
53646;SDS011;39550;52.230;5.194;2022-12-20T15:59:50;15.95;;;12.90;;
53646;SDS011;39550;52.230;5.194;2022-12-20T16:04:49;14.55;;;12.65;;
53646;SDS011;39550;52.230;5.194;2022-12-20T16:07:15;14.65;;;12.73;;
53646;SDS011;39550;52.230;5.194;2022-12-20T16:09:41;13.60;;;12.10;;
53646;SDS011;39550;52.230;5.194;2022-12-20T16:12:28;18.60;;;12.90;;
53646;SDS011;39550;52.230;5.194;2022-12-20T16:14:54;15.10;;;12.20;;
53646;SDS011;39550;52.230;5.194;2022-12-20T16:17:19;14.85;;;12.63;;
53646;SDS011;39550;52.230;5.194;2022-12-20T16:19:45;15.70;;;12.60;;
53646;SDS011;39550;52.230;5.194;2022-12-20T16:22:14;14.75;;;12.23;;
53646;SDS011;39550;52.230;5.194;2022-12-20T16:24:41;14.40;;;12.27;;
53646;SDS011;39550;52.230;5.194;2022-12-20T16:27:07;15.70;;;13.70;;
53646;SDS011;39550;52.230;5.194;2022-12-20T16:29:33;16.00;;;13.88;;
53646;SDS011;39550;52.230;5.194;2022-12-20T16:31:58;18.20;;;15.07;;
53646;SDS011;39550;52.230;5.194;2022-12-20T16:34:24;18.88;;;15.77;;
53646;SDS011;39550;52.230;5.194;2022-12-20T16:36:49;17.58;;;15.18;;
53646;SDS011;39550;52.230;5.194;2022-12-20T16:39:14;19.95;;;16.02;;
53646;SDS011;39550;52.230;5.194;2022-12-20T16:41:40;18.15;;;14.27;;
53646;SDS011;39550;52.230;5.194;2022-12-20T16:44:10;17.67;;;15.02;;
53646;SDS011;39550;52.230;5.194;2022-12-20T16:46:38;17.90;;;15.25;;
53646;SDS011;39550;52.230;5.194;2022-12-20T16:49:03;17.63;;;14.85;;
53646;SDS011;39550;52.230;5.194;2022-12-20T16:51:30;17.40;;;14.95;;
53646;SDS011;39550;52.230;5.194;2022-12-20T16:54:02;15.40;;;12.90;;
53646;SDS011;39550;52.230;5.194;2022-12-20T16:56:30;17.30;;;14.65;;
53646;SDS011;39550;52.230;5.194;2022-12-20T16:58:56;16.23;;;14.43;;
53646;SDS011;39550;52.230;5.194;2022-12-20T17:01:23;19.13;;;14.80;;
53646;SDS011;39550;52.230;5.194;2022-12-20T17:03:56;17.63;;;14.32;;
53646;SDS011;39550;52.230;5.194;2022-12-20T17:06:21;16.73;;;14.63;;
53646;SDS011;39550;52.230;5.194;2022-12-20T17:08:46;16.27;;;14.20;;
53646;SDS011;39550;52.230;5.194;2022-12-20T17:11:20;17.20;;;13.98;;
53646;SDS011;39550;52.230;5.194;2022-12-20T17:13:50;17.25;;;14.43;;
53646;SDS011;39550;52.230;5.194;2022-12-20T17:16:18;15.75;;;13.90;;
53646;SDS011;39550;52.230;5.194;2022-12-20T17:18:45;17.90;;;14.02;;
53646;SDS011;39550;52.230;5.194;2022-12-20T17:21:34;15.77;;;13.88;;
53646;SDS011;39550;52.230;5.194;2022-12-20T17:24:13;18.02;;;14.75;;